Time;durP1;ratioP1;P1;durP2;ratioP2;P2;SDS_P1;SDS_P2;PMS_P1;PMS_P2;Temp;Humidity;BMP_temperature;BMP_pressure;BME280_temperature;BME280_humidity;BME280_pressure;Samples;Min_cycle;Max_cycle;Signal;HPM_P1;HPM_P2
2022/12/21 00:01:13;;;;;;;62.40;26.40;;;;;;;;;;5114242;28;20450;-68
2022/12/21 00:03:40;;;;;;;65.83;23.93;;;;;;;;;;5113415;28;20445;-68
2022/12/21 00:06:07;;;;;;;60.80;24.70;;;;;;;;;;5114065;28;20822;-68
2022/12/21 00:08:37;;;;;;;52.17;25.53;;;;;;;;;;5113739;28;20482;-69
2022/12/21 00:11:05;;;;;;;44.03;19.87;;;;;;;;;;5113710;28;20450;-68
2022/12/21 00:13:32;;;;;;;60.60;21.93;;;;;;;;;;5113398;28;20492;-68
2022/12/21 00:15:59;;;;;;;59.20;24.63;;;;;;;;;;5113537;28;20454;-68
2022/12/21 00:18:27;;;;;;;69.73;26.60;;;;;;;;;;5113650;28;20454;-69
2022/12/21 00:21:01;;;;;;;67.10;26.87;;;;;;;;;;5113566;28;20461;-69
2022/12/21 00:23:29;;;;;;;62.37;22.17;;;;;;;;;;5113129;28;20445;-69
2022/12/21 00:25:59;;;;;;;47.07;25.20;;;;;;;;;;5113562;28;20441;-68
2022/12/21 00:28:26;;;;;;;58.07;24.50;;;;;;;;;;5113519;28;20469;-69
2022/12/21 00:30:53;;;;;;;67.80;25.17;;;;;;;;;;5111183;28;20449;-69
2022/12/21 00:33:20;;;;;;;59.37;24.77;;;;;;;;;;5113547;28;20832;-68
2022/12/21 00:35:48;;;;;;;53.63;24.40;;;;;;;;;;5113037;28;20946;-68
2022/12/21 00:38:15;;;;;;;63.30;24.10;;;;;;;;;;5113401;28;20497;-68
2022/12/21 00:40:42;;;;;;;54.13;23.13;;;;;;;;;;5113289;28;20969;-69
2022/12/21 00:43:11;;;;;;;65.07;25.30;;;;;;;;;;5113312;28;20441;-69
2022/12/21 00:45:38;;;;;;;62.30;25.40;;;;;;;;;;5112738;28;20965;-69
2022/12/21 00:48:08;;;;;;;62.50;23.90;;;;;;;;;;5113169;28;20969;-68
2022/12/21 00:50:35;;;;;;;56.50;23.10;;;;;;;;;;5113156;28;20449;-69
2022/12/21 00:53:02;;;;;;;51.30;25.17;;;;;;;;;;5113034;28;20457;-68
2022/12/21 00:55:29;;;;;;;63.20;24.93;;;;;;;;;;5112470;28;20450;-69
2022/12/21 00:57:56;;;;;;;65.67;27.13;;;;;;;;;;5113014;28;20485;-69
2022/12/21 01:00:25;;;;;;;61.97;23.97;;;;;;;;;;5113217;28;20450;-68
2022/12/21 01:02:52;;;;;;;62.00;24.63;;;;;;;;;;5112848;28;20845;-68
2022/12/21 01:05:19;;;;;;;54.97;24.60;;;;;;;;;;5112264;28;20449;-68
2022/12/21 01:07:46;;;;;;;62.53;25.17;;;;;;;;;;5112969;28;20469;-68
2022/12/21 01:10:14;;;;;;;70.40;25.73;;;;;;;;;;5112802;28;20469;-68
2022/12/21 01:12:41;;;;;;;63.30;24.80;;;;;;;;;;5112791;28;20458;-69
2022/12/21 01:15:09;;;;;;;50.87;21.07;;;;;;;;;;5112164;28;20493;-68
2022/12/21 01:17:37;;;;;;;60.60;26.37;;;;;;;;;;5112835;28;20492;-68
2022/12/21 01:20:05;;;;;;;64.60;24.43;;;;;;;;;;5112912;28;20453;-68
2022/12/21 01:22:32;;;;;;;66.63;25.50;;;;;;;;;;5112936;28;20454;-69
2022/12/21 01:24:59;;;;;;;63.03;24.07;;;;;;;;;;5112049;28;20449;-69
2022/12/21 01:27:26;;;;;;;57.90;25.80;;;;;;;;;;5112731;28;20481;-68
2022/12/21 01:29:53;;;;;;;57.00;25.30;;;;;;;;;;5112707;28;20450;-69
2022/12/21 01:32:20;;;;;;;50.30;22.80;;;;;;;;;;5110878;28;20476;-69
2022/12/21 01:34:48;;;;;;;62.47;22.43;;;;;;;;;;5112088;28;20485;-69
2022/12/21 01:37:15;;;;;;;56.47;23.97;;;;;;;;;;5112518;28;20466;-69
2022/12/21 01:39:43;;;;;;;56.00;24.10;;;;;;;;;;5112721;28;20449;-68
2022/12/21 01:42:12;;;;;;;53.53;25.53;;;;;;;;;;5112758;28;20460;-71
2022/12/21 01:44:50;;;;;;;50.90;23.57;;;;;;;;;;5111931;28;20500;-69
2022/12/21 01:47:19;;;;;;;52.00;23.63;;;;;;;;;;5112645;28;20815;-69
2022/12/21 01:49:48;;;;;;;51.20;24.90;;;;;;;;;;5112553;28;20456;-68
2022/12/21 01:52:16;;;;;;;56.47;25.00;;;;;;;;;;5112760;28;20654;-68
2022/12/21 01:54:45;;;;;;;61.53;24.90;;;;;;;;;;5111922;28;21029;-69
2022/12/21 01:57:14;;;;;;;56.53;24.33;;;;;;;;;;5112436;28;20477;-68
2022/12/21 01:59:43;;;;;;;58.80;24.17;;;;;;;;;;5112530;28;20930;-68
2022/12/21 02:02:13;;;;;;;74.90;27.63;;;;;;;;;;5112558;28;20956;-69
2022/12/21 02:04:40;;;;;;;51.63;24.77;;;;;;;;;;5111756;28;20450;-68
2022/12/21 02:07:07;;;;;;;55.27;22.83;;;;;;;;;;5112446;28;20809;-68
2022/12/21 02:09:36;;;;;;;58.13;26.57;;;;;;;;;;5112147;28;20460;-69
2022/12/21 02:12:04;;;;;;;61.50;24.40;;;;;;;;;;5112602;28;20445;-68
2022/12/21 02:14:32;;;;;;;67.03;27.47;;;;;;;;;;5111711;28;20481;-69
2022/12/21 02:17:04;;;;;;;57.93;24.03;;;;;;;;;;5112223;28;20449;-69
2022/12/21 02:19:52;;;;;;;55.87;23.90;;;;;;;;;;5115892;28;20809;-68
2022/12/21 02:22:24;;;;;;;63.03;22.47;;;;;;;;;;5116131;28;20458;-69
2022/12/21 02:25:03;;;;;;;57.90;26.77;;;;;;;;;;5115361;28;20958;-68
2022/12/21 02:27:48;;;;;;;59.93;26.83;;;;;;;;;;5115979;28;20832;-69
2022/12/21 02:30:17;;;;;;;67.67;25.50;;;;;;;;;;5115762;28;20807;-69
2022/12/21 02:32:51;;;;;;;56.60;24.03;;;;;;;;;;5114053;28;20453;-69
2022/12/21 02:35:25;;;;;;;64.30;26.00;;;;;;;;;;5115204;28;20515;-69
2022/12/21 02:37:58;;;;;;;56.23;23.90;;;;;;;;;;5115500;28;20480;-68
2022/12/21 02:40:29;;;;;;;50.00;23.07;;;;;;;;;;5115736;28;20450;-68
2022/12/21 02:45:49;;;;;;;61.40;25.33;;;;;;;;;;5114944;28;20483;-70
2022/12/21 02:48:20;;;;;;;66.33;26.60;;;;;;;;;;5115565;28;20465;-69
2022/12/21 02:50:50;;;;;;;74.73;26.77;;;;;;;;;;5115636;28;20665;-69
2022/12/21 02:53:18;;;;;;;68.33;30.07;;;;;;;;;;5115586;27;20441;-69
2022/12/21 02:55:46;;;;;;;61.90;23.87;;;;;;;;;;5114688;28;20492;-69
2022/12/21 02:58:14;;;;;;;68.17;25.80;;;;;;;;;;5115418;27;20469;-69
2022/12/21 03:00:45;;;;;;;81.70;25.33;;;;;;;;;;5115371;28;20457;-69
2022/12/21 03:06:11;;;;;;;51.33;22.33;;;;;;;;;;5115164;28;20499;-69
2022/12/21 03:08:44;;;;;;;65.77;23.83;;;;;;;;;;5115123;28;20997;-69
2022/12/21 03:11:11;;;;;;;62.80;26.00;;;;;;;;;;5114997;28;20465;-68
2022/12/21 03:13:44;;;;;;;59.93;24.40;;;;;;;;;;5114514;28;20453;-69
2022/12/21 03:16:15;;;;;;;91.63;36.33;;;;;;;;;;5115018;28;20449;-69
2022/12/21 03:18:48;;;;;;;67.47;24.83;;;;;;;;;;5114876;28;20477;-69
2022/12/21 03:21:19;;;;;;;75.60;26.97;;;;;;;;;;5115046;28;20456;-69
2022/12/21 03:23:49;;;;;;;51.40;22.33;;;;;;;;;;5114150;28;20457;-69
2022/12/21 03:26:18;;;;;;;59.17;24.63;;;;;;;;;;5114960;28;20449;-68
2022/12/21 03:28:47;;;;;;;61.67;25.63;;;;;;;;;;5114598;28;20477;-68
2022/12/21 03:31:16;;;;;;;84.13;28.07;;;;;;;;;;5112332;28;20453;-69
2022/12/21 03:33:46;;;;;;;40.97;19.53;;;;;;;;;;5114145;28;20481;-69
2022/12/21 03:36:16;;;;;;;66.70;26.43;;;;;;;;;;5114496;28;20482;-69
2022/12/21 03:38:46;;;;;;;54.00;26.10;;;;;;;;;;5114613;28;20476;-69
2022/12/21 03:41:15;;;;;;;56.47;23.70;;;;;;;;;;5114126;28;20446;-69
2022/12/21 03:43:43;;;;;;;64.27;25.00;;;;;;;;;;5113836;28;20950;-69
2022/12/21 03:46:13;;;;;;;66.33;23.80;;;;;;;;;;5114332;27;20472;-69
2022/12/21 03:48:43;;;;;;;67.87;26.33;;;;;;;;;;5114158;28;20989;-68
2022/12/21 03:51:15;;;;;;;53.97;22.40;;;;;;;;;;5114307;28;20449;-69
2022/12/21 03:53:46;;;;;;;53.70;22.80;;;;;;;;;;5113423;28;20454;-69
2022/12/21 03:56:18;;;;;;;57.33;24.03;;;;;;;;;;5114125;28;20492;-68
2022/12/21 03:58:45;;;;;;;61.70;22.10;;;;;;;;;;5114041;28;20476;-69
2022/12/21 04:01:18;;;;;;;53.47;23.90;;;;;;;;;;5114117;28;20450;-69
2022/12/21 04:03:47;;;;;;;58.00;20.60;;;;;;;;;;5113333;28;20454;-68
2022/12/21 04:06:17;;;;;;;66.93;24.00;;;;;;;;;;5113873;28;20460;-69
2022/12/21 04:08:44;;;;;;;68.60;25.23;;;;;;;;;;5114110;28;20468;-68
2022/12/21 04:12:36;;;;;;;57.37;25.50;;;;;;;;;;5113940;28;20453;-69
2022/12/21 04:14:00;;;;;;;63.37;25.90;;;;;;;;;;5112997;28;20453;-68
2022/12/21 04:16:27;;;;;;;59.13;23.60;;;;;;;;;;5113638;28;20503;-69
2022/12/21 04:21:39;;;;;;;61.90;24.27;;;;;;;;;;5113760;28;20429;-68
2022/12/21 04:29:37;;;;;;;85.97;35.73;;;;;;;;;;5113640;28;20856;-69
2022/12/21 04:32:04;;;;;;;62.87;28.33;;;;;;;;;;5111023;28;20469;-68
2022/12/21 04:34:31;;;;;;;57.67;27.87;;;;;;;;;;5112717;28;20493;-68
2022/12/21 04:39:43;;;;;;;55.30;23.67;;;;;;;;;;5113346;28;20421;-68
2022/12/21 04:42:10;;;;;;;61.80;23.00;;;;;;;;;;5113094;28;20827;-69
2022/12/21 04:44:39;;;;;;;58.03;21.90;;;;;;;;;;5112683;28;20454;-69
2022/12/21 04:47:06;;;;;;;49.00;21.47;;;;;;;;;;5113176;28;20454;-69
2022/12/21 04:49:33;;;;;;;55.83;21.60;;;;;;;;;;5113524;28;20824;-69
2022/12/21 04:52:00;;;;;;;60.77;22.10;;;;;;;;;;5113314;28;20816;-69
2022/12/21 04:54:27;;;;;;;59.73;23.37;;;;;;;;;;5112531;28;20453;-68
2022/12/21 04:56:54;;;;;;;45.13;20.00;;;;;;;;;;5113116;28;20947;-68
2022/12/21 04:59:21;;;;;;;67.20;30.48;;;;;;;;;;5112059;28;20443;-69
2022/12/21 05:01:50;;;;;;;66.33;25.70;;;;;;;;;;5113000;28;20204;-69
2022/12/21 05:04:17;;;;;;;62.90;25.70;;;;;;;;;;5112042;28;20449;-69
2022/12/21 05:06:44;;;;;;;61.20;25.20;;;;;;;;;;5112898;28;20218;-68
2022/12/21 05:09:12;;;;;;;55.90;23.40;;;;;;;;;;5113136;28;20985;-68
2022/12/21 05:11:39;;;;;;;51.40;22.67;;;;;;;;;;5112806;28;20489;-69
2022/12/21 05:14:07;;;;;;;56.07;23.40;;;;;;;;;;5112338;28;20454;-68
2022/12/21 05:16:34;;;;;;;60.47;23.47;;;;;;;;;;5112918;28;20486;-68
2022/12/21 05:19:02;;;;;;;54.97;23.83;;;;;;;;;;5112791;28;20466;-68
2022/12/21 05:21:29;;;;;;;62.60;23.23;;;;;;;;;;5113041;28;20947;-68
2022/12/21 05:23:56;;;;;;;53.50;23.73;;;;;;;;;;5112415;28;20473;-68
2022/12/21 05:26:23;;;;;;;67.10;24.33;;;;;;;;;;5112863;28;20942;-69
2022/12/21 05:28:50;;;;;;;58.63;22.97;;;;;;;;;;5112664;28;20977;-68
2022/12/21 05:31:19;;;;;;;62.90;24.63;;;;;;;;;;5111321;28;20472;-68
2022/12/21 05:33:46;;;;;;;66.00;24.30;;;;;;;;;;5112213;28;20453;-68
2022/12/21 05:36:15;;;;;;;60.13;24.17;;;;;;;;;;5112899;28;21002;-68
2022/12/21 05:38:42;;;;;;;60.60;25.33;;;;;;;;;;5112519;28;20480;-69
2022/12/21 05:41:10;;;;;;;61.20;24.53;;;;;;;;;;5112692;28;20441;-68
2022/12/21 05:43:37;;;;;;;47.07;21.63;;;;;;;;;;5112335;28;20453;-68
2022/12/21 05:46:05;;;;;;;66.57;23.60;;;;;;;;;;5112771;28;20458;-68
2022/12/21 05:48:32;;;;;;;48.57;22.43;;;;;;;;;;5112617;28;20461;-69
2022/12/21 05:50:59;;;;;;;57.13;21.10;;;;;;;;;;5112543;28;20699;-68
2022/12/21 05:53:28;;;;;;;91.73;42.00;;;;;;;;;;5114431;28;20939;-69
2022/12/21 05:55:55;;;;;;;63.73;28.77;;;;;;;;;;5116492;28;20617;-68
2022/12/21 05:58:22;;;;;;;57.23;23.63;;;;;;;;;;5116669;28;20893;-68
2022/12/21 06:00:50;;;;;;;77.50;31.70;;;;;;;;;;5115398;28;20473;-68
2022/12/21 06:03:17;;;;;;;47.70;22.40;;;;;;;;;;5112174;28;21007;-68
2022/12/21 06:05:44;;;;;;;52.37;23.83;;;;;;;;;;5115063;28;20437;-68
2022/12/21 06:08:11;;;;;;;110.00;46.87;;;;;;;;;;5115900;28;20469;-68
2022/12/21 06:10:40;;;;;;;60.43;27.10;;;;;;;;;;5116183;27;20502;-68
2022/12/21 06:13:07;;;;;;;67.20;24.40;;;;;;;;;;5115929;28;20453;-68
2022/12/21 06:15:34;;;;;;;74.37;35.43;;;;;;;;;;5114639;28;20489;-69
2022/12/21 06:18:01;;;;;;;98.53;45.33;;;;;;;;;;5115742;28;20469;-68
2022/12/21 06:20:28;;;;;;;235.03;107.73;;;;;;;;;;5115966;28;20481;-68
2022/12/21 06:22:55;;;;;;;68.23;28.00;;;;;;;;;;5115647;28;20445;-68
2022/12/21 06:25:22;;;;;;;53.27;25.93;;;;;;;;;;5115040;28;20449;-69
2022/12/21 06:27:51;;;;;;;55.30;26.50;;;;;;;;;;5115516;28;20990;-69
2022/12/21 06:30:21;;;;;;;70.43;29.67;;;;;;;;;;5115793;28;20491;-69
2022/12/21 06:32:48;;;;;;;57.33;22.70;;;;;;;;;;5113930;28;20445;-68
2022/12/21 06:35:17;;;;;;;59.47;23.83;;;;;;;;;;5114988;27;20485;-69
2022/12/21 06:37:44;;;;;;;53.73;23.73;;;;;;;;;;5115200;28;20478;-68
2022/12/21 06:40:12;;;;;;;60.27;24.00;;;;;;;;;;5115742;28;20555;-68
2022/12/21 06:42:39;;;;;;;55.00;23.87;;;;;;;;;;5115350;28;20461;-68
2022/12/21 06:45:08;;;;;;;61.60;24.60;;;;;;;;;;5114870;28;20457;-68
2022/12/21 06:47:35;;;;;;;111.83;44.00;;;;;;;;;;5115072;28;20470;-68
2022/12/21 06:50:02;;;;;;;86.60;29.30;;;;;;;;;;5115094;28;20445;-68
2022/12/21 06:52:29;;;;;;;71.73;31.90;;;;;;;;;;5115300;28;20446;-68
2022/12/21 06:54:56;;;;;;;61.90;28.70;;;;;;;;;;5114429;28;20819;-68
2022/12/21 06:57:23;;;;;;;60.87;30.60;;;;;;;;;;5114934;28;20465;-68
2022/12/21 06:59:50;;;;;;;64.40;28.60;;;;;;;;;;5114972;28;20446;-68
2022/12/21 07:02:19;;;;;;;53.80;26.90;;;;;;;;;;5115114;28;20456;-68
2022/12/21 07:04:46;;;;;;;71.17;25.87;;;;;;;;;;5114179;28;20450;-68
2022/12/21 07:07:13;;;;;;;58.03;25.60;;;;;;;;;;5114901;28;20477;-68
2022/12/21 07:09:40;;;;;;;57.60;24.13;;;;;;;;;;5114763;28;20472;-68
2022/12/21 07:12:07;;;;;;;58.57;23.50;;;;;;;;;;5114932;28;20462;-68
2022/12/21 07:14:34;;;;;;;62.40;31.60;;;;;;;;;;5114647;28;20450;-68
2022/12/21 07:17:01;;;;;;;63.57;23.80;;;;;;;;;;5114846;28;20492;-68
2022/12/21 07:19:30;;;;;;;52.20;24.53;;;;;;;;;;5114910;28;20511;-68
2022/12/21 07:21:57;;;;;;;68.20;28.50;;;;;;;;;;5114866;28;20481;-68
2022/12/21 07:24:24;;;;;;;59.23;27.17;;;;;;;;;;5114518;28;20931;-68
2022/12/21 07:26:51;;;;;;;89.33;35.93;;;;;;;;;;5114896;28;20450;-68
2022/12/21 07:29:18;;;;;;;117.33;42.87;;;;;;;;;;5114934;28;20465;-68
2022/12/21 07:31:45;;;;;;;138.77;54.57;;;;;;;;;;5113394;28;20450;-67
2022/12/21 07:34:12;;;;;;;184.43;69.60;;;;;;;;;;5114557;28;20449;-68
2022/12/21 07:36:41;;;;;;;63.13;25.63;;;;;;;;;;5114469;28;20485;-68
2022/12/21 07:39:08;;;;;;;62.70;31.50;;;;;;;;;;5114457;28;20480;-68
2022/12/21 07:41:35;;;;;;;56.10;23.87;;;;;;;;;;5114787;28;20978;-68
2022/12/21 07:44:02;;;;;;;99.33;39.37;;;;;;;;;;5114036;28;20824;-68
2022/12/21 07:46:29;;;;;;;49.97;21.50;;;;;;;;;;5114566;28;20818;-68
2022/12/21 07:48:56;;;;;;;53.07;22.07;;;;;;;;;;5114234;28;20469;-69
2022/12/21 07:51:23;;;;;;;107.90;38.77;;;;;;;;;;5114450;28;20943;-68
2022/12/21 07:53:52;;;;;;;59.23;23.40;;;;;;;;;;5113785;28;20465;-68
2022/12/21 07:56:19;;;;;;;46.60;21.40;;;;;;;;;;5114137;28;20485;-69
2022/12/21 07:58:46;;;;;;;57.53;23.30;;;;;;;;;;5114090;28;20484;-69
2022/12/21 08:01:16;;;;;;;59.73;28.23;;;;;;;;;;5114728;28;20445;-68
2022/12/21 08:03:44;;;;;;;93.63;39.30;;;;;;;;;;5113545;28;20453;-69
2022/12/21 08:06:11;;;;;;;61.47;29.20;;;;;;;;;;5112194;28;20450;-68
2022/12/21 08:08:39;;;;;;;60.97;32.30;;;;;;;;;;5113470;28;20474;-68
2022/12/21 08:11:10;;;;;;;53.10;25.10;;;;;;;;;;5113591;28;20465;-68
2022/12/21 08:13:38;;;;;;;59.03;24.37;;;;;;;;;;5113338;28;20969;-68
2022/12/21 08:16:06;;;;;;;48.40;21.70;;;;;;;;;;5112696;28;21033;-68
2022/12/21 08:18:33;;;;;;;56.27;30.10;;;;;;;;;;5113390;28;20470;-68
2022/12/21 08:21:01;;;;;;;50.77;23.77;;;;;;;;;;5114620;28;20464;-69
2022/12/21 08:23:28;;;;;;;44.03;20.57;;;;;;;;;;5112991;28;20453;-70
2022/12/21 08:25:55;;;;;;;43.17;20.13;;;;;;;;;;5113115;28;20456;-69
2022/12/21 08:28:23;;;;;;;43.10;20.37;;;;;;;;;;5113200;28;20479;-68
2022/12/21 08:30:50;;;;;;;49.00;21.73;;;;;;;;;;5111340;28;20454;-69
2022/12/21 08:33:18;;;;;;;46.43;21.53;;;;;;;;;;5113449;28;20450;-68
2022/12/21 08:35:45;;;;;;;53.37;21.97;;;;;;;;;;5112420;28;20493;-69
2022/12/21 08:38:12;;;;;;;53.10;20.57;;;;;;;;;;5112924;28;20465;-69
2022/12/21 08:40:39;;;;;;;55.90;22.80;;;;;;;;;;5113170;28;20456;-69
2022/12/21 08:43:06;;;;;;;47.00;23.10;;;;;;;;;;5113061;28;20457;-69
2022/12/21 08:45:35;;;;;;;43.20;22.40;;;;;;;;;;5112366;28;20460;-69
2022/12/21 08:48:02;;;;;;;43.43;21.93;;;;;;;;;;5112925;28;20841;-68
2022/12/21 08:50:29;;;;;;;45.67;20.53;;;;;;;;;;5112999;28;20453;-69
2022/12/21 08:52:56;;;;;;;44.73;20.70;;;;;;;;;;5112911;28;20812;-68
2022/12/21 08:55:23;;;;;;;47.43;22.97;;;;;;;;;;5112466;28;20457;-68
2022/12/21 08:57:50;;;;;;;50.33;21.87;;;;;;;;;;5113065;28;20493;-68
2022/12/21 09:00:17;;;;;;;48.37;21.33;;;;;;;;;;5112718;28;20454;-68
2022/12/21 09:02:46;;;;;;;50.23;23.00;;;;;;;;;;5113053;28;20975;-68
2022/12/21 09:05:13;;;;;;;54.73;25.60;;;;;;;;;;5112427;28;20464;-69
2022/12/21 09:07:40;;;;;;;47.00;25.87;;;;;;;;;;5112604;28;20461;-69
2022/12/21 09:10:08;;;;;;;51.57;23.53;;;;;;;;;;5112506;28;20950;-70
2022/12/21 09:12:35;;;;;;;42.47;21.57;;;;;;;;;;5112793;28;20460;-69
2022/12/21 09:15:02;;;;;;;47.93;22.33;;;;;;;;;;5112293;28;20465;-69
2022/12/21 09:17:29;;;;;;;50.13;24.23;;;;;;;;;;5112398;28;20484;-70
2022/12/21 09:19:58;;;;;;;55.60;25.57;;;;;;;;;;5112313;28;20453;-70
2022/12/21 09:22:25;;;;;;;54.10;23.13;;;;;;;;;;5112767;28;20445;-69
2022/12/21 09:24:52;;;;;;;50.23;26.23;;;;;;;;;;5112005;28;20480;-70
2022/12/21 09:27:19;;;;;;;54.50;25.10;;;;;;;;;;5114280;28;20982;-69
2022/12/21 09:29:47;;;;;;;50.27;24.73;;;;;;;;;;5116420;28;20453;-69
2022/12/21 09:32:14;;;;;;;41.27;23.40;;;;;;;;;;5115042;28;20461;-69
2022/12/21 09:34:41;;;;;;;47.30;24.37;;;;;;;;;;5116207;28;20445;-70
2022/12/21 09:37:10;;;;;;;44.50;23.17;;;;;;;;;;5106380;28;20490;-71
2022/12/21 09:39:38;;;;;;;49.63;25.07;;;;;;;;;;5096420;28;20450;-69
2022/12/21 09:42:13;;;;;;;51.50;26.00;;;;;;;;;;5096724;28;20468;-69
2022/12/21 09:44:58;;;;;;;47.10;25.03;;;;;;;;;;5095782;28;20453;-70
2022/12/21 09:47:29;;;;;;;61.53;29.90;;;;;;;;;;5096295;28;20874;-69
2022/12/21 09:49:57;;;;;;;62.13;30.90;;;;;;;;;;5096121;28;20866;-69
2022/12/21 09:52:28;;;;;;;51.80;27.27;;;;;;;;;;5096267;28;20450;-69
2022/12/21 09:54:58;;;;;;;54.60;27.13;;;;;;;;;;5096860;28;20450;-69
2022/12/21 09:57:27;;;;;;;53.90;25.00;;;;;;;;;;5096737;28;20486;-69
2022/12/21 09:59:55;;;;;;;50.03;26.60;;;;;;;;;;5100319;28;20451;-68
2022/12/21 10:02:28;;;;;;;52.90;26.20;;;;;;;;;;5098988;28;20458;-68
2022/12/21 10:05:00;;;;;;;69.80;36.43;;;;;;;;;;5096715;28;20454;-68
2022/12/21 10:07:51;;;;;;;61.50;31.10;;;;;;;;;;5096312;28;20467;-69
2022/12/21 10:10:22;;;;;;;50.50;26.23;;;;;;;;;;5096027;28;20466;-69
2022/12/21 10:12:53;;;;;;;54.57;24.93;;;;;;;;;;5095761;28;20454;-69
2022/12/21 10:15:26;;;;;;;55.40;25.10;;;;;;;;;;5095883;28;20454;-69
2022/12/21 10:17:57;;;;;;;50.00;26.00;;;;;;;;;;5095845;28;20497;-70
2022/12/21 10:20:46;;;;;;;41.40;25.63;;;;;;;;;;5095738;28;20450;-70
2022/12/21 10:23:17;;;;;;;49.83;27.10;;;;;;;;;;5095793;28;20485;-70
2022/12/21 10:25:46;;;;;;;48.03;25.07;;;;;;;;;;5095267;28;20548;-70
2022/12/21 10:28:23;;;;;;;49.27;24.47;;;;;;;;;;5095490;28;20474;-70
2022/12/21 10:30:55;;;;;;;46.30;22.60;;;;;;;;;;5094204;28;20874;-70
2022/12/21 10:33:23;;;;;;;72.33;30.90;;;;;;;;;;5095734;28;20478;-70
2022/12/21 10:35:51;;;;;;;74.97;33.50;;;;;;;;;;5095358;28;20473;-70
2022/12/21 10:38:20;;;;;;;66.63;34.10;;;;;;;;;;5095087;28;20494;-70
2022/12/21 10:40:50;;;;;;;65.60;28.10;;;;;;;;;;5095526;28;20451;-70
2022/12/21 10:43:17;;;;;;;56.77;28.80;;;;;;;;;;5095336;28;20468;-70
2022/12/21 10:45:44;;;;;;;51.37;28.20;;;;;;;;;;5094752;28;20482;-70
2022/12/21 10:48:11;;;;;;;64.23;34.10;;;;;;;;;;5095253;28;20482;-71
2022/12/21 10:50:40;;;;;;;64.87;29.57;;;;;;;;;;5095120;28;20450;-71
2022/12/21 10:53:19;;;;;;;56.93;26.97;;;;;;;;;;5095158;28;20454;-71
2022/12/21 10:55:47;;;;;;;58.57;28.17;;;;;;;;;;5095136;28;20951;-71
2022/12/21 10:58:17;;;;;;;46.57;26.23;;;;;;;;;;5095074;28;20487;-71
2022/12/21 11:00:50;;;;;;;38.27;20.80;;;;;;;;;;5094740;28;20450;-71
2022/12/21 11:03:23;;;;;;;39.03;21.23;;;;;;;;;;5094955;28;20451;-71
2022/12/21 11:05:50;;;;;;;41.87;21.93;;;;;;;;;;5094529;28;20479;-71
2022/12/21 11:08:20;;;;;;;39.27;22.73;;;;;;;;;;5094947;28;20467;-70
2022/12/21 11:10:49;;;;;;;31.90;19.60;;;;;;;;;;5094657;28;20463;-70
2022/12/21 11:13:17;;;;;;;34.93;19.43;;;;;;;;;;5095155;28;20457;-70
2022/12/21 11:15:56;;;;;;;38.57;17.93;;;;;;;;;;5094753;28;20944;-71
2022/12/21 11:18:28;;;;;;;36.20;21.27;;;;;;;;;;5094533;28;20491;-71
2022/12/21 11:20:55;;;;;;;35.37;19.23;;;;;;;;;;5094788;28;20454;-71
2022/12/21 11:23:22;;;;;;;36.90;19.83;;;;;;;;;;5094579;28;20963;-71
2022/12/21 11:25:51;;;;;;;51.20;23.00;;;;;;;;;;5094098;28;20446;-72
2022/12/21 11:28:19;;;;;;;32.53;19.07;;;;;;;;;;5094425;28;20475;-72
2022/12/21 11:30:51;;;;;;;38.93;23.87;;;;;;;;;;5092573;28;20463;-73
2022/12/21 11:33:19;;;;;;;39.20;20.83;;;;;;;;;;5094344;28;20859;-72
2022/12/21 11:36:01;;;;;;;33.30;19.33;;;;;;;;;;5093918;28;20485;-72
2022/12/21 11:38:34;;;;;;;37.10;19.83;;;;;;;;;;5093913;28;20490;-72
2022/12/21 11:41:03;;;;;;;40.03;19.07;;;;;;;;;;5094219;28;20820;-72
2022/12/21 11:43:30;;;;;;;33.70;19.60;;;;;;;;;;5093899;28;20454;-73
2022/12/21 11:46:01;;;;;;;37.73;20.80;;;;;;;;;;5093915;28;20962;-72
2022/12/21 11:48:32;;;;;;;41.50;21.77;;;;;;;;;;5093930;28;20466;-72
2022/12/21 11:51:02;;;;;;;37.97;20.57;;;;;;;;;;5092495;28;20450;-72
2022/12/21 11:53:36;;;;;;;34.93;19.63;;;;;;;;;;5093375;28;20543;-72
2022/12/21 11:56:11;;;;;;;30.30;18.20;;;;;;;;;;5093643;28;20453;-72
2022/12/21 11:58:56;;;;;;;28.53;17.90;;;;;;;;;;5093647;28;20571;-72
2022/12/21 12:01:30;;;;;;;39.63;23.63;;;;;;;;;;5093888;28;20828;-72
2022/12/21 12:04:04;;;;;;;46.70;25.97;;;;;;;;;;5093362;28;20489;-72
2022/12/21 12:06:45;;;;;;;48.37;27.17;;;;;;;;;;5093618;28;20482;-72
2022/12/21 12:09:17;;;;;;;35.63;19.63;;;;;;;;;;5093562;28;20543;-72
2022/12/21 12:11:53;;;;;;;82.63;50.07;;;;;;;;;;5093597;28;20458;-72
2022/12/21 12:14:26;;;;;;;60.13;30.37;;;;;;;;;;5093118;28;20453;-72
2022/12/21 12:17:00;;;;;;;55.90;27.80;;;;;;;;;;5093148;28;20485;-72
2022/12/21 12:19:30;;;;;;;48.60;27.43;;;;;;;;;;5093567;28;20943;-72
2022/12/21 12:22:04;;;;;;;47.10;24.87;;;;;;;;;;5093333;28;20450;-72
2022/12/21 12:24:38;;;;;;;51.87;26.93;;;;;;;;;;5093139;28;20929;-71
2022/12/21 12:27:13;;;;;;;48.20;28.27;;;;;;;;;;5093123;28;20924;-72
2022/12/21 12:29:49;;;;;;;51.63;25.47;;;;;;;;;;5093256;28;20562;-72
2022/12/21 12:32:29;;;;;;;43.13;24.43;;;;;;;;;;5091910;28;20764;-72
2022/12/21 12:35:03;;;;;;;53.60;32.13;;;;;;;;;;5092712;28;20442;-72
2022/12/21 12:37:34;;;;;;;51.23;27.53;;;;;;;;;;5092980;28;20926;-72
2022/12/21 12:40:06;;;;;;;45.10;25.37;;;;;;;;;;5092956;28;20466;-71
2022/12/21 12:42:36;;;;;;;53.40;33.47;;;;;;;;;;5093070;28;20875;-72
2022/12/21 12:45:08;;;;;;;55.77;32.47;;;;;;;;;;5092634;28;20458;-72
2022/12/21 12:47:42;;;;;;;79.23;37.60;;;;;;;;;;5092849;28;20470;-71
2022/12/21 12:50:15;;;;;;;81.17;36.37;;;;;;;;;;5092978;28;20451;-71
2022/12/21 12:53:03;;;;;;;197.10;73.53;;;;;;;;;;5092992;28;20466;-71
2022/12/21 12:55:36;;;;;;;70.17;33.87;;;;;;;;;;5086148;28;20455;-72
2022/12/21 12:58:07;;;;;;;54.87;27.47;;;;;;;;;;5093245;28;20482;-72
2022/12/21 13:00:40;;;;;;;44.83;23.73;;;;;;;;;;5093075;28;20451;-71
2022/12/21 13:03:12;;;;;;;66.63;24.80;;;;;;;;;;5092482;28;20446;-71
2022/12/21 13:05:44;;;;;;;44.10;23.10;;;;;;;;;;5092631;28;20459;-72
2022/12/21 13:08:17;;;;;;;45.47;23.67;;;;;;;;;;5092720;28;20466;-71
2022/12/21 13:10:49;;;;;;;89.53;39.53;;;;;;;;;;5092470;28;20881;-71
2022/12/21 13:13:23;;;;;;;51.87;27.83;;;;;;;;;;5092621;28;20457;-72
2022/12/21 13:15:53;;;;;;;61.63;36.17;;;;;;;;;;5092124;28;20447;-72
2022/12/21 13:18:21;;;;;;;59.40;33.17;;;;;;;;;;5092400;28;20513;-73
2022/12/21 13:20:50;;;;;;;53.37;28.13;;;;;;;;;;5092441;28;20467;-73
2022/12/21 13:23:19;;;;;;;61.07;28.73;;;;;;;;;;5092659;28;20954;-73
2022/12/21 13:25:49;;;;;;;43.60;25.90;;;;;;;;;;5091974;28;20458;-73
2022/12/21 13:28:19;;;;;;;56.30;27.90;;;;;;;;;;5092953;28;20971;-73
2022/12/21 13:30:49;;;;;;;68.73;28.93;;;;;;;;;;5090739;28;20902;-73
2022/12/21 13:33:17;;;;;;;140.20;59.27;;;;;;;;;;5092473;28;20458;-73
2022/12/21 13:35:52;;;;;;;75.63;33.33;;;;;;;;;;5091799;28;20450;-73
2022/12/21 13:38:23;;;;;;;75.37;36.97;;;;;;;;;;5092202;28;20490;-73
2022/12/21 13:40:56;;;;;;;88.90;41.80;;;;;;;;;;5092407;28;20906;-72
2022/12/21 13:43:26;;;;;;;83.30;37.77;;;;;;;;;;5092331;28;20453;-73
2022/12/21 13:45:59;;;;;;;67.13;33.27;;;;;;;;;;5092237;28;20451;-72
2022/12/21 13:48:28;;;;;;;61.43;30.57;;;;;;;;;;5092228;28;20470;-72
2022/12/21 13:51:01;;;;;;;55.23;28.87;;;;;;;;;;5092187;28;20470;-72
2022/12/21 13:53:34;;;;;;;47.70;26.60;;;;;;;;;;5091951;28;20858;-73
2022/12/21 13:56:05;;;;;;;53.63;27.63;;;;;;;;;;5092132;28;20451;-73
2022/12/21 13:58:37;;;;;;;65.20;29.90;;;;;;;;;;5092102;28;20501;-73
2022/12/21 14:01:12;;;;;;;67.77;32.80;;;;;;;;;;5085923;28;20977;-73
2022/12/21 14:03:43;;;;;;;60.93;34.00;;;;;;;;;;5105906;28;20498;-74
2022/12/21 14:06:22;;;;;;;68.80;29.67;;;;;;;;;;5111215;28;20445;-74
2022/12/21 14:08:55;;;;;;;58.90;28.33;;;;;;;;;;5110823;28;21002;-74
2022/12/21 14:11:31;;;;;;;56.03;30.17;;;;;;;;;;5110796;28;20561;-74
2022/12/21 14:14:09;;;;;;;57.63;28.90;;;;;;;;;;5111170;28;20449;-73
2022/12/21 14:16:38;;;;;;;66.23;37.23;;;;;;;;;;5114750;28;20446;-74
2022/12/21 14:19:14;;;;;;;61.90;31.13;;;;;;;;;;5114687;28;20485;-73
2022/12/21 14:21:42;;;;;;;56.40;29.83;;;;;;;;;;5114412;28;20448;-73
2022/12/21 14:24:16;;;;;;;67.13;30.60;;;;;;;;;;5115260;28;20450;-73
2022/12/21 14:26:44;;;;;;;67.20;34.37;;;;;;;;;;5114927;28;20456;-73
2022/12/21 14:29:18;;;;;;;66.27;30.43;;;;;;;;;;5115021;28;20480;-73
2022/12/21 14:31:50;;;;;;;76.53;34.33;;;;;;;;;;5113771;28;20454;-73
2022/12/21 14:34:18;;;;;;;60.00;30.87;;;;;;;;;;5114497;28;20456;-73
2022/12/21 14:37:02;;;;;;;57.23;29.27;;;;;;;;;;5113732;28;20457;-73
2022/12/21 14:39:39;;;;;;;57.23;29.53;;;;;;;;;;5110379;28;20485;-73
2022/12/21 14:42:24;;;;;;;58.70;31.87;;;;;;;;;;5115238;27;20858;-73
2022/12/21 14:45:11;;;;;;;56.87;26.47;;;;;;;;;;5115972;28;20454;-73
2022/12/21 14:47:40;;;;;;;58.03;28.97;;;;;;;;;;5116339;28;20488;-73